sensor_id;sensor_type;location;lat;lon;timestamp;P1;durP1;ratioP1;P2;durP2;ratioP2
31037;SDS011;17702;47.590;7.666;2024-01-30T00:01:15;29.48;;;18.38;;
31037;SDS011;17702;47.590;7.666;2024-01-30T00:03:40;28.23;;;18.90;;
31037;SDS011;17702;47.590;7.666;2024-01-30T00:06:06;32.63;;;19.05;;
31037;SDS011;17702;47.590;7.666;2024-01-30T00:08:33;31.88;;;18.10;;
31037;SDS011;17702;47.590;7.666;2024-01-30T00:10:59;28.50;;;18.20;;
31037;SDS011;17702;47.590;7.666;2024-01-30T00:13:24;28.73;;;18.73;;
31037;SDS011;17702;47.590;7.666;2024-01-30T00:15:50;34.03;;;19.30;;
31037;SDS011;17702;47.590;7.666;2024-01-30T00:18:15;33.08;;;18.52;;
31037;SDS011;17702;47.590;7.666;2024-01-30T00:20:41;30.88;;;19.02;;
31037;SDS011;17702;47.590;7.666;2024-01-30T00:23:08;28.20;;;18.40;;
31037;SDS011;17702;47.590;7.666;2024-01-30T00:25:33;28.15;;;18.65;;
31037;SDS011;17702;47.590;7.666;2024-01-30T00:27:59;29.95;;;18.73;;
31037;SDS011;17702;47.590;7.666;2024-01-30T00:30:25;26.02;;;17.75;;
31037;SDS011;17702;47.590;7.666;2024-01-30T00:32:50;26.58;;;17.50;;
31037;SDS011;17702;47.590;7.666;2024-01-30T00:35:16;31.88;;;18.77;;
31037;SDS011;17702;47.590;7.666;2024-01-30T00:37:41;28.70;;;18.13;;
31037;SDS011;17702;47.590;7.666;2024-01-30T00:40:07;28.23;;;17.83;;
31037;SDS011;17702;47.590;7.666;2024-01-30T00:42:35;28.80;;;18.67;;
31037;SDS011;17702;47.590;7.666;2024-01-30T00:45:01;28.35;;;18.00;;
31037;SDS011;17702;47.590;7.666;2024-01-30T00:47:26;30.17;;;19.17;;
31037;SDS011;17702;47.590;7.666;2024-01-30T00:49:54;27.48;;;17.40;;
31037;SDS011;17702;47.590;7.666;2024-01-30T00:52:19;23.42;;;15.85;;
31037;SDS011;17702;47.590;7.666;2024-01-30T00:54:45;21.25;;;14.00;;
31037;SDS011;17702;47.590;7.666;2024-01-30T00:57:10;18.67;;;12.77;;
31037;SDS011;17702;47.590;7.666;2024-01-30T00:59:36;19.60;;;13.38;;
31037;SDS011;17702;47.590;7.666;2024-01-30T01:02:01;21.63;;;13.38;;
31037;SDS011;17702;47.590;7.666;2024-01-30T01:04:27;24.63;;;15.35;;
31037;SDS011;17702;47.590;7.666;2024-01-30T01:06:53;22.10;;;13.75;;
31037;SDS011;17702;47.590;7.666;2024-01-30T01:09:18;20.88;;;13.93;;
31037;SDS011;17702;47.590;7.666;2024-01-30T01:11:44;21.13;;;12.35;;
31037;SDS011;17702;47.590;7.666;2024-01-30T01:14:09;21.55;;;13.80;;
31037;SDS011;17702;47.590;7.666;2024-01-30T01:16:35;20.65;;;12.20;;
31037;SDS011;17702;47.590;7.666;2024-01-30T01:19:00;18.67;;;11.77;;
31037;SDS011;17702;47.590;7.666;2024-01-30T01:21:26;18.45;;;12.02;;
31037;SDS011;17702;47.590;7.666;2024-01-30T01:23:52;19.95;;;11.65;;
31037;SDS011;17702;47.590;7.666;2024-01-30T01:26:17;22.08;;;12.18;;
31037;SDS011;17702;47.590;7.666;2024-01-30T01:28:43;17.23;;;11.23;;
31037;SDS011;17702;47.590;7.666;2024-01-30T01:31:08;16.30;;;11.20;;
31037;SDS011;17702;47.590;7.666;2024-01-30T01:33:34;15.52;;;10.95;;
31037;SDS011;17702;47.590;7.666;2024-01-30T01:36:02;19.73;;;11.85;;
31037;SDS011;17702;47.590;7.666;2024-01-30T01:38:28;20.10;;;12.20;;
31037;SDS011;17702;47.590;7.666;2024-01-30T01:40:53;17.10;;;11.23;;
31037;SDS011;17702;47.590;7.666;2024-01-30T01:43:19;21.25;;;12.25;;
31037;SDS011;17702;47.590;7.666;2024-01-30T01:45:45;24.92;;;14.10;;
31037;SDS011;17702;47.590;7.666;2024-01-30T01:48:10;20.70;;;14.07;;
31037;SDS011;17702;47.590;7.666;2024-01-30T01:50:37;23.48;;;13.57;;
31037;SDS011;17702;47.590;7.666;2024-01-30T01:53:03;19.17;;;13.57;;
31037;SDS011;17702;47.590;7.666;2024-01-30T01:55:33;18.55;;;12.13;;
31037;SDS011;17702;47.590;7.666;2024-01-30T01:57:59;16.58;;;10.77;;
31037;SDS011;17702;47.590;7.666;2024-01-30T02:00:25;16.50;;;11.00;;
31037;SDS011;17702;47.590;7.666;2024-01-30T02:02:51;16.88;;;10.40;;
31037;SDS011;17702;47.590;7.666;2024-01-30T02:05:19;16.52;;;11.13;;
31037;SDS011;17702;47.590;7.666;2024-01-30T02:07:46;18.20;;;11.13;;
31037;SDS011;17702;47.590;7.666;2024-01-30T02:10:12;17.83;;;11.77;;
31037;SDS011;17702;47.590;7.666;2024-01-30T02:12:38;14.75;;;10.32;;
31037;SDS011;17702;47.590;7.666;2024-01-30T02:15:03;14.98;;;9.98;;
31037;SDS011;17702;47.590;7.666;2024-01-30T02:17:30;14.30;;;9.63;;
31037;SDS011;17702;47.590;7.666;2024-01-30T02:19:56;13.68;;;9.82;;
31037;SDS011;17702;47.590;7.666;2024-01-30T02:22:22;13.27;;;9.43;;
31037;SDS011;17702;47.590;7.666;2024-01-30T02:24:48;17.27;;;10.38;;
31037;SDS011;17702;47.590;7.666;2024-01-30T02:27:14;12.30;;;9.35;;
31037;SDS011;17702;47.590;7.666;2024-01-30T02:29:40;12.90;;;9.55;;
31037;SDS011;17702;47.590;7.666;2024-01-30T02:32:05;14.32;;;9.32;;
31037;SDS011;17702;47.590;7.666;2024-01-30T02:34:32;14.23;;;9.63;;
31037;SDS011;17702;47.590;7.666;2024-01-30T02:36:58;16.20;;;9.60;;
31037;SDS011;17702;47.590;7.666;2024-01-30T02:39:23;17.25;;;9.60;;
31037;SDS011;17702;47.590;7.666;2024-01-30T02:41:49;15.10;;;9.77;;
31037;SDS011;17702;47.590;7.666;2024-01-30T02:44:22;13.07;;;9.18;;
31037;SDS011;17702;47.590;7.666;2024-01-30T02:46:47;24.75;;;15.63;;
31037;SDS011;17702;47.590;7.666;2024-01-30T02:49:13;25.00;;;15.75;;
31037;SDS011;17702;47.590;7.666;2024-01-30T02:51:38;18.85;;;12.32;;
31037;SDS011;17702;47.590;7.666;2024-01-30T02:54:04;21.27;;;14.50;;
31037;SDS011;17702;47.590;7.666;2024-01-30T02:56:29;15.02;;;10.43;;
31037;SDS011;17702;47.590;7.666;2024-01-30T02:58:55;18.25;;;10.05;;
31037;SDS011;17702;47.590;7.666;2024-01-30T03:01:21;15.07;;;9.80;;
31037;SDS011;17702;47.590;7.666;2024-01-30T03:03:46;14.05;;;10.45;;
31037;SDS011;17702;47.590;7.666;2024-01-30T03:06:12;13.18;;;9.93;;
31037;SDS011;17702;47.590;7.666;2024-01-30T03:08:40;16.60;;;10.95;;
31037;SDS011;17702;47.590;7.666;2024-01-30T03:11:05;15.48;;;10.30;;
31037;SDS011;17702;47.590;7.666;2024-01-30T03:13:31;19.02;;;11.93;;
31037;SDS011;17702;47.590;7.666;2024-01-30T03:15:56;18.08;;;11.25;;
31037;SDS011;17702;47.590;7.666;2024-01-30T03:18:22;15.77;;;11.23;;
31037;SDS011;17702;47.590;7.666;2024-01-30T03:20:48;14.70;;;10.32;;
31037;SDS011;17702;47.590;7.666;2024-01-30T03:23:13;16.35;;;10.70;;
31037;SDS011;17702;47.590;7.666;2024-01-30T03:25:39;17.52;;;11.20;;
31037;SDS011;17702;47.590;7.666;2024-01-30T03:28:04;17.10;;;11.52;;
31037;SDS011;17702;47.590;7.666;2024-01-30T03:30:30;20.00;;;10.88;;
31037;SDS011;17702;47.590;7.666;2024-01-30T03:32:56;23.40;;;14.75;;
31037;SDS011;17702;47.590;7.666;2024-01-30T03:35:21;26.45;;;17.77;;
31037;SDS011;17702;47.590;7.666;2024-01-30T03:37:47;31.92;;;18.48;;
31037;SDS011;17702;47.590;7.666;2024-01-30T03:40:12;29.02;;;17.83;;
31037;SDS011;17702;47.590;7.666;2024-01-30T03:42:38;30.30;;;17.77;;
31037;SDS011;17702;47.590;7.666;2024-01-30T03:45:03;31.77;;;18.25;;
31037;SDS011;17702;47.590;7.666;2024-01-30T03:47:29;29.35;;;18.15;;
31037;SDS011;17702;47.590;7.666;2024-01-30T03:49:55;28.75;;;17.42;;
31037;SDS011;17702;47.590;7.666;2024-01-30T03:52:20;27.48;;;16.98;;
31037;SDS011;17702;47.590;7.666;2024-01-30T03:54:46;19.98;;;12.73;;
31037;SDS011;17702;47.590;7.666;2024-01-30T03:57:12;19.48;;;12.00;;
31037;SDS011;17702;47.590;7.666;2024-01-30T03:59:43;17.02;;;11.55;;
31037;SDS011;17702;47.590;7.666;2024-01-30T04:02:10;18.55;;;11.80;;
31037;SDS011;17702;47.590;7.666;2024-01-30T04:04:36;13.77;;;10.27;;
31037;SDS011;17702;47.590;7.666;2024-01-30T04:07:02;16.30;;;10.55;;
31037;SDS011;17702;47.590;7.666;2024-01-30T04:09:28;18.40;;;11.07;;
31037;SDS011;17702;47.590;7.666;2024-01-30T04:11:53;16.42;;;10.73;;
31037;SDS011;17702;47.590;7.666;2024-01-30T04:14:19;24.92;;;15.63;;
31037;SDS011;17702;47.590;7.666;2024-01-30T04:16:44;19.23;;;12.13;;
31037;SDS011;17702;47.590;7.666;2024-01-30T04:19:10;16.67;;;10.88;;
31037;SDS011;17702;47.590;7.666;2024-01-30T04:21:36;24.45;;;11.63;;
31037;SDS011;17702;47.590;7.666;2024-01-30T04:24:01;21.27;;;10.80;;
31037;SDS011;17702;47.590;7.666;2024-01-30T04:26:27;17.20;;;10.82;;
31037;SDS011;17702;47.590;7.666;2024-01-30T04:28:52;15.45;;;11.38;;
31037;SDS011;17702;47.590;7.666;2024-01-30T04:31:18;17.13;;;11.20;;
31037;SDS011;17702;47.590;7.666;2024-01-30T04:33:44;17.17;;;12.00;;
31037;SDS011;17702;47.590;7.666;2024-01-30T04:36:09;14.55;;;10.73;;
31037;SDS011;17702;47.590;7.666;2024-01-30T04:38:35;16.27;;;11.18;;
31037;SDS011;17702;47.590;7.666;2024-01-30T04:41:01;15.95;;;10.68;;
31037;SDS011;17702;47.590;7.666;2024-01-30T04:43:26;13.93;;;10.30;;
31037;SDS011;17702;47.590;7.666;2024-01-30T04:45:52;18.27;;;11.32;;
31037;SDS011;17702;47.590;7.666;2024-01-30T04:48:18;15.45;;;10.77;;
31037;SDS011;17702;47.590;7.666;2024-01-30T04:50:43;14.80;;;10.45;;
31037;SDS011;17702;47.590;7.666;2024-01-30T04:53:09;15.18;;;10.55;;
31037;SDS011;17702;47.590;7.666;2024-01-30T04:55:35;17.65;;;11.00;;
31037;SDS011;17702;47.590;7.666;2024-01-30T04:58:01;16.40;;;10.65;;
31037;SDS011;17702;47.590;7.666;2024-01-30T05:00:27;15.73;;;10.32;;
31037;SDS011;17702;47.590;7.666;2024-01-30T05:02:54;14.98;;;10.80;;
31037;SDS011;17702;47.590;7.666;2024-01-30T05:05:20;17.40;;;10.93;;
31037;SDS011;17702;47.590;7.666;2024-01-30T05:07:46;16.42;;;10.77;;
31037;SDS011;17702;47.590;7.666;2024-01-30T05:10:12;14.43;;;10.65;;
31037;SDS011;17702;47.590;7.666;2024-01-30T05:12:38;17.55;;;10.98;;
31037;SDS011;17702;47.590;7.666;2024-01-30T05:15:04;19.05;;;11.52;;
31037;SDS011;17702;47.590;7.666;2024-01-30T05:17:30;19.08;;;11.32;;
31037;SDS011;17702;47.590;7.666;2024-01-30T05:19:55;17.88;;;11.48;;
31037;SDS011;17702;47.590;7.666;2024-01-30T05:22:21;17.45;;;10.80;;
31037;SDS011;17702;47.590;7.666;2024-01-30T05:24:47;16.45;;;11.27;;
31037;SDS011;17702;47.590;7.666;2024-01-30T05:27:12;16.00;;;10.10;;
31037;SDS011;17702;47.590;7.666;2024-01-30T05:29:42;17.85;;;10.68;;
31037;SDS011;17702;47.590;7.666;2024-01-30T05:32:07;18.63;;;11.15;;
31037;SDS011;17702;47.590;7.666;2024-01-30T05:34:33;14.70;;;11.02;;
31037;SDS011;17702;47.590;7.666;2024-01-30T05:36:59;17.63;;;11.25;;
31037;SDS011;17702;47.590;7.666;2024-01-30T05:39:24;17.58;;;10.90;;
31037;SDS011;17702;47.590;7.666;2024-01-30T05:41:50;18.33;;;10.23;;
31037;SDS011;17702;47.590;7.666;2024-01-30T05:44:15;17.80;;;11.85;;
31037;SDS011;17702;47.590;7.666;2024-01-30T05:46:41;15.95;;;10.75;;
31037;SDS011;17702;47.590;7.666;2024-01-30T05:49:07;19.40;;;11.25;;
31037;SDS011;17702;47.590;7.666;2024-01-30T05:51:32;19.15;;;11.13;;
31037;SDS011;17702;47.590;7.666;2024-01-30T05:53:58;15.75;;;11.13;;
31037;SDS011;17702;47.590;7.666;2024-01-30T05:56:23;15.85;;;10.93;;
31037;SDS011;17702;47.590;7.666;2024-01-30T05:58:49;17.08;;;10.95;;
31037;SDS011;17702;47.590;7.666;2024-01-30T06:01:15;17.48;;;10.90;;
31037;SDS011;17702;47.590;7.666;2024-01-30T06:03:41;18.45;;;11.10;;
31037;SDS011;17702;47.590;7.666;2024-01-30T06:06:08;19.63;;;11.68;;
31037;SDS011;17702;47.590;7.666;2024-01-30T06:08:34;16.05;;;10.35;;
31037;SDS011;17702;47.590;7.666;2024-01-30T06:10:59;16.85;;;10.45;;
31037;SDS011;17702;47.590;7.666;2024-01-30T06:13:25;14.60;;;9.70;;
31037;SDS011;17702;47.590;7.666;2024-01-30T06:15:51;15.40;;;10.13;;
31037;SDS011;17702;47.590;7.666;2024-01-30T06:18:17;15.15;;;10.38;;
31037;SDS011;17702;47.590;7.666;2024-01-30T06:20:43;17.88;;;10.52;;
31037;SDS011;17702;47.590;7.666;2024-01-30T06:23:08;18.15;;;11.65;;
31037;SDS011;17702;47.590;7.666;2024-01-30T06:25:34;18.98;;;10.65;;
31037;SDS011;17702;47.590;7.666;2024-01-30T06:28:00;17.63;;;11.60;;
31037;SDS011;17702;47.590;7.666;2024-01-30T06:30:25;14.60;;;10.02;;
31037;SDS011;17702;47.590;7.666;2024-01-30T06:32:51;15.45;;;11.30;;
31037;SDS011;17702;47.590;7.666;2024-01-30T06:35:16;14.20;;;10.60;;
31037;SDS011;17702;47.590;7.666;2024-01-30T06:37:42;19.33;;;11.23;;
31037;SDS011;17702;47.590;7.666;2024-01-30T06:40:08;14.88;;;10.70;;
31037;SDS011;17702;47.590;7.666;2024-01-30T06:42:34;14.77;;;10.98;;
31037;SDS011;17702;47.590;7.666;2024-01-30T06:45:00;17.67;;;11.05;;
31037;SDS011;17702;47.590;7.666;2024-01-30T06:47:25;15.70;;;11.25;;
31037;SDS011;17702;47.590;7.666;2024-01-30T06:49:51;20.70;;;11.80;;
31037;SDS011;17702;47.590;7.666;2024-01-30T06:52:17;19.65;;;11.85;;
31037;SDS011;17702;47.590;7.666;2024-01-30T06:54:42;18.70;;;11.50;;
31037;SDS011;17702;47.590;7.666;2024-01-30T06:57:08;18.60;;;11.57;;
31037;SDS011;17702;47.590;7.666;2024-01-30T06:59:36;19.20;;;12.40;;
31037;SDS011;17702;47.590;7.666;2024-01-30T07:02:06;16.38;;;11.65;;
31037;SDS011;17702;47.590;7.666;2024-01-30T07:04:32;19.88;;;12.18;;
31037;SDS011;17702;47.590;7.666;2024-01-30T07:06:58;19.90;;;12.07;;
31037;SDS011;17702;47.590;7.666;2024-01-30T07:09:23;20.77;;;12.70;;
31037;SDS011;17702;47.590;7.666;2024-01-30T07:11:49;20.65;;;11.65;;
31037;SDS011;17702;47.590;7.666;2024-01-30T07:14:15;19.77;;;12.02;;
31037;SDS011;17702;47.590;7.666;2024-01-30T07:16:40;24.80;;;12.75;;
31037;SDS011;17702;47.590;7.666;2024-01-30T07:19:06;18.67;;;12.13;;
31037;SDS011;17702;47.590;7.666;2024-01-30T07:21:34;16.95;;;11.50;;
31037;SDS011;17702;47.590;7.666;2024-01-30T07:23:59;20.73;;;12.32;;
31037;SDS011;17702;47.590;7.666;2024-01-30T07:26:25;19.35;;;10.48;;
31037;SDS011;17702;47.590;7.666;2024-01-30T07:28:51;17.20;;;11.40;;
31037;SDS011;17702;47.590;7.666;2024-01-30T07:31:16;19.27;;;12.18;;
31037;SDS011;17702;47.590;7.666;2024-01-30T07:33:45;19.13;;;12.95;;
31037;SDS011;17702;47.590;7.666;2024-01-30T07:36:11;20.38;;;12.30;;
31037;SDS011;17702;47.590;7.666;2024-01-30T07:38:37;19.02;;;11.38;;
31037;SDS011;17702;47.590;7.666;2024-01-30T07:41:02;19.10;;;11.63;;
31037;SDS011;17702;47.590;7.666;2024-01-30T07:43:28;20.42;;;12.27;;
31037;SDS011;17702;47.590;7.666;2024-01-30T07:45:53;19.48;;;12.82;;
31037;SDS011;17702;47.590;7.666;2024-01-30T07:48:19;18.85;;;12.23;;
31037;SDS011;17702;47.590;7.666;2024-01-30T07:50:44;17.58;;;11.85;;
31037;SDS011;17702;47.590;7.666;2024-01-30T07:53:10;18.58;;;12.05;;
31037;SDS011;17702;47.590;7.666;2024-01-30T07:55:36;21.90;;;12.90;;
31037;SDS011;17702;47.590;7.666;2024-01-30T07:58:01;19.92;;;11.93;;
31037;SDS011;17702;47.590;7.666;2024-01-30T08:00:28;20.13;;;12.65;;
31037;SDS011;17702;47.590;7.666;2024-01-30T08:02:54;140.00;;;102.15;;
31037;SDS011;17702;47.590;7.666;2024-01-30T08:05:20;131.35;;;83.07;;
31037;SDS011;17702;47.590;7.666;2024-01-30T08:07:47;76.57;;;40.95;;
31037;SDS011;17702;47.590;7.666;2024-01-30T08:10:13;61.15;;;43.80;;
31037;SDS011;17702;47.590;7.666;2024-01-30T08:12:40;27.95;;;18.95;;
31037;SDS011;17702;47.590;7.666;2024-01-30T08:15:06;23.63;;;12.85;;
31037;SDS011;17702;47.590;7.666;2024-01-30T08:17:32;19.20;;;12.15;;
31037;SDS011;17702;47.590;7.666;2024-01-30T08:19:58;23.55;;;12.88;;
31037;SDS011;17702;47.590;7.666;2024-01-30T08:22:24;23.52;;;13.07;;
31037;SDS011;17702;47.590;7.666;2024-01-30T08:24:50;17.00;;;12.07;;
31037;SDS011;17702;47.590;7.666;2024-01-30T08:27:16;21.58;;;12.90;;
31037;SDS011;17702;47.590;7.666;2024-01-30T08:29:41;16.98;;;12.13;;
31037;SDS011;17702;47.590;7.666;2024-01-30T08:32:07;22.38;;;12.90;;
31037;SDS011;17702;47.590;7.666;2024-01-30T08:34:33;27.75;;;14.68;;
31037;SDS011;17702;47.590;7.666;2024-01-30T08:36:58;20.05;;;13.10;;
31037;SDS011;17702;47.590;7.666;2024-01-30T08:39:24;21.88;;;13.82;;
31037;SDS011;17702;47.590;7.666;2024-01-30T08:41:50;24.73;;;14.15;;
31037;SDS011;17702;47.590;7.666;2024-01-30T08:44:16;22.75;;;12.70;;
31037;SDS011;17702;47.590;7.666;2024-01-30T08:46:42;25.05;;;13.25;;
31037;SDS011;17702;47.590;7.666;2024-01-30T08:49:09;20.15;;;13.13;;
31037;SDS011;17702;47.590;7.666;2024-01-30T08:51:35;20.45;;;12.85;;
31037;SDS011;17702;47.590;7.666;2024-01-30T08:54:00;19.85;;;13.50;;
31037;SDS011;17702;47.590;7.666;2024-01-30T08:56:27;28.10;;;13.85;;
31037;SDS011;17702;47.590;7.666;2024-01-30T08:58:52;21.27;;;13.30;;
31037;SDS011;17702;47.590;7.666;2024-01-30T09:01:18;21.48;;;13.80;;
31037;SDS011;17702;47.590;7.666;2024-01-30T09:03:43;24.95;;;14.55;;
31037;SDS011;17702;47.590;7.666;2024-01-30T09:06:11;30.05;;;15.05;;
31037;SDS011;17702;47.590;7.666;2024-01-30T09:08:37;28.05;;;15.68;;
31037;SDS011;17702;47.590;7.666;2024-01-30T09:11:35;25.58;;;14.52;;
31037;SDS011;17702;47.590;7.666;2024-01-30T09:13:54;129.98;;;82.05;;
31037;SDS011;17702;47.590;7.666;2024-01-30T09:16:20;35.50;;;23.95;;
31037;SDS011;17702;47.590;7.666;2024-01-30T09:18:45;40.80;;;25.75;;
31037;SDS011;17702;47.590;7.666;2024-01-30T09:21:11;28.23;;;17.05;;
31037;SDS011;17702;47.590;7.666;2024-01-30T09:23:36;23.63;;;15.68;;
31037;SDS011;17702;47.590;7.666;2024-01-30T09:26:02;25.25;;;15.23;;
31037;SDS011;17702;47.590;7.666;2024-01-30T09:28:28;28.25;;;16.13;;
31037;SDS011;17702;47.590;7.666;2024-01-30T09:30:54;25.00;;;15.02;;
31037;SDS011;17702;47.590;7.666;2024-01-30T09:33:19;23.98;;;14.73;;
31037;SDS011;17702;47.590;7.666;2024-01-30T09:35:45;23.83;;;14.35;;
31037;SDS011;17702;47.590;7.666;2024-01-30T09:38:11;24.42;;;14.77;;
31037;SDS011;17702;47.590;7.666;2024-01-30T09:40:36;23.70;;;14.52;;
31037;SDS011;17702;47.590;7.666;2024-01-30T09:43:02;28.20;;;16.48;;
31037;SDS011;17702;47.590;7.666;2024-01-30T09:45:28;30.45;;;15.35;;
31037;SDS011;17702;47.590;7.666;2024-01-30T09:47:58;24.13;;;14.18;;
31037;SDS011;17702;47.590;7.666;2024-01-30T09:50:24;27.85;;;14.82;;
31037;SDS011;17702;47.590;7.666;2024-01-30T09:52:51;23.85;;;15.10;;
31037;SDS011;17702;47.590;7.666;2024-01-30T09:55:21;28.27;;;15.80;;
31037;SDS011;17702;47.590;7.666;2024-01-30T09:57:48;24.60;;;14.40;;
31037;SDS011;17702;47.590;7.666;2024-01-30T10:00:13;20.52;;;14.02;;
31037;SDS011;17702;47.590;7.666;2024-01-30T10:02:39;32.22;;;15.65;;
31037;SDS011;17702;47.590;7.666;2024-01-30T10:05:05;21.67;;;14.93;;
31037;SDS011;17702;47.590;7.666;2024-01-30T10:07:31;28.50;;;16.08;;
31037;SDS011;17702;47.590;7.666;2024-01-30T10:09:56;23.95;;;15.63;;
31037;SDS011;17702;47.590;7.666;2024-01-30T10:12:22;29.45;;;16.83;;
31037;SDS011;17702;47.590;7.666;2024-01-30T10:14:50;28.45;;;16.10;;
31037;SDS011;17702;47.590;7.666;2024-01-30T10:17:16;24.40;;;15.88;;
31037;SDS011;17702;47.590;7.666;2024-01-30T10:19:41;24.40;;;16.50;;
31037;SDS011;17702;47.590;7.666;2024-01-30T10:22:07;24.65;;;15.68;;
31037;SDS011;17702;47.590;7.666;2024-01-30T10:24:34;21.67;;;14.63;;
31037;SDS011;17702;47.590;7.666;2024-01-30T10:27:00;21.98;;;14.27;;
31037;SDS011;17702;47.590;7.666;2024-01-30T10:29:26;21.08;;;13.63;;
31037;SDS011;17702;47.590;7.666;2024-01-30T10:32:02;25.95;;;14.32;;
31037;SDS011;17702;47.590;7.666;2024-01-30T10:34:29;21.70;;;14.90;;
31037;SDS011;17702;47.590;7.666;2024-01-30T10:37:16;24.10;;;15.70;;
31037;SDS011;17702;47.590;7.666;2024-01-30T10:39:43;23.77;;;15.45;;
31037;SDS011;17702;47.590;7.666;2024-01-30T10:42:13;25.17;;;16.08;;
31037;SDS011;17702;47.590;7.666;2024-01-30T10:44:45;21.67;;;15.45;;
31037;SDS011;17702;47.590;7.666;2024-01-30T10:49:59;35.60;;;16.08;;
31037;SDS011;17702;47.590;7.666;2024-01-30T10:52:25;22.98;;;13.57;;
31037;SDS011;17702;47.590;7.666;2024-01-30T10:54:51;26.15;;;14.07;;
31037;SDS011;17702;47.590;7.666;2024-01-30T10:57:19;25.13;;;15.27;;
31037;SDS011;17702;47.590;7.666;2024-01-30T10:59:47;20.52;;;14.27;;
31037;SDS011;17702;47.590;7.666;2024-01-30T11:02:14;20.75;;;14.02;;
31037;SDS011;17702;47.590;7.666;2024-01-30T11:04:41;23.27;;;14.68;;
31037;SDS011;17702;47.590;7.666;2024-01-30T11:07:23;21.50;;;14.10;;
31037;SDS011;17702;47.590;7.666;2024-01-30T11:09:53;21.33;;;14.65;;
31037;SDS011;17702;47.590;7.666;2024-01-30T11:12:29;23.27;;;14.48;;
31037;SDS011;17702;47.590;7.666;2024-01-30T11:15:02;25.05;;;15.07;;
31037;SDS011;17702;47.590;7.666;2024-01-30T11:17:42;25.83;;;15.20;;
31037;SDS011;17702;47.590;7.666;2024-01-30T11:22:45;22.13;;;13.60;;
31037;SDS011;17702;47.590;7.666;2024-01-30T11:25:12;22.05;;;14.68;;
31037;SDS011;17702;47.590;7.666;2024-01-30T11:27:38;22.10;;;14.15;;
31037;SDS011;17702;47.590;7.666;2024-01-30T11:30:05;17.17;;;13.88;;
31037;SDS011;17702;47.590;7.666;2024-01-30T11:32:31;21.45;;;14.07;;
31037;SDS011;17702;47.590;7.666;2024-01-30T11:34:56;18.10;;;13.18;;
31037;SDS011;17702;47.590;7.666;2024-01-30T11:37:24;19.60;;;12.85;;
31037;SDS011;17702;47.590;7.666;2024-01-30T11:39:53;21.83;;;13.98;;
31037;SDS011;17702;47.590;7.666;2024-01-30T11:42:19;20.83;;;13.82;;
31037;SDS011;17702;47.590;7.666;2024-01-30T11:44:47;18.38;;;13.25;;
31037;SDS011;17702;47.590;7.666;2024-01-30T11:47:14;17.30;;;13.55;;
31037;SDS011;17702;47.590;7.666;2024-01-30T11:49:40;22.13;;;15.30;;
31037;SDS011;17702;47.590;7.666;2024-01-30T11:52:06;25.10;;;15.73;;
31037;SDS011;17702;47.590;7.666;2024-01-30T11:54:32;19.73;;;13.50;;
31037;SDS011;17702;47.590;7.666;2024-01-30T11:56:58;21.13;;;14.73;;
31037;SDS011;17702;47.590;7.666;2024-01-30T11:59:23;19.90;;;13.20;;
31037;SDS011;17702;47.590;7.666;2024-01-30T12:01:51;18.80;;;13.00;;
31037;SDS011;17702;47.590;7.666;2024-01-30T12:04:17;20.00;;;13.00;;
31037;SDS011;17702;47.590;7.666;2024-01-30T12:06:42;18.00;;;12.77;;
31037;SDS011;17702;47.590;7.666;2024-01-30T12:09:08;22.50;;;13.48;;
31037;SDS011;17702;47.590;7.666;2024-01-30T12:11:44;20.88;;;12.35;;
31037;SDS011;17702;47.590;7.666;2024-01-30T12:14:10;19.58;;;13.40;;
31037;SDS011;17702;47.590;7.666;2024-01-30T12:16:36;17.80;;;13.30;;
31037;SDS011;17702;47.590;7.666;2024-01-30T12:19:02;18.75;;;12.95;;
31037;SDS011;17702;47.590;7.666;2024-01-30T12:21:28;17.23;;;12.20;;
31037;SDS011;17702;47.590;7.666;2024-01-30T12:23:54;21.77;;;12.80;;
31037;SDS011;17702;47.590;7.666;2024-01-30T12:26:20;18.48;;;12.60;;
31037;SDS011;17702;47.590;7.666;2024-01-30T12:28:49;20.73;;;12.90;;
31037;SDS011;17702;47.590;7.666;2024-01-30T12:31:15;17.90;;;12.45;;
31037;SDS011;17702;47.590;7.666;2024-01-30T12:33:41;18.98;;;12.77;;
31037;SDS011;17702;47.590;7.666;2024-01-30T12:36:06;15.95;;;12.20;;
31037;SDS011;17702;47.590;7.666;2024-01-30T12:38:32;17.10;;;12.52;;
31037;SDS011;17702;47.590;7.666;2024-01-30T12:40:58;21.02;;;13.02;;
31037;SDS011;17702;47.590;7.666;2024-01-30T12:43:24;19.27;;;12.23;;
31037;SDS011;17702;47.590;7.666;2024-01-30T12:45:51;14.98;;;11.27;;
31037;SDS011;17702;47.590;7.666;2024-01-30T12:48:18;16.05;;;11.63;;
31037;SDS011;17702;47.590;7.666;2024-01-30T12:50:43;16.95;;;11.43;;
31037;SDS011;17702;47.590;7.666;2024-01-30T12:53:09;19.02;;;11.35;;
31037;SDS011;17702;47.590;7.666;2024-01-30T12:55:35;23.13;;;12.43;;
31037;SDS011;17702;47.590;7.666;2024-01-30T12:58:00;21.73;;;12.10;;
31037;SDS011;17702;47.590;7.666;2024-01-30T13:00:26;17.58;;;11.48;;
31037;SDS011;17702;47.590;7.666;2024-01-30T13:02:52;19.02;;;12.07;;
31037;SDS011;17702;47.590;7.666;2024-01-30T13:05:17;16.73;;;11.60;;
31037;SDS011;17702;47.590;7.666;2024-01-30T13:07:43;14.88;;;10.60;;
31037;SDS011;17702;47.590;7.666;2024-01-30T13:10:09;17.58;;;10.70;;
31037;SDS011;17702;47.590;7.666;2024-01-30T13:12:34;15.55;;;11.15;;
31037;SDS011;17702;47.590;7.666;2024-01-30T13:15:00;15.98;;;10.30;;
31037;SDS011;17702;47.590;7.666;2024-01-30T13:17:27;13.88;;;10.35;;
31037;SDS011;17702;47.590;7.666;2024-01-30T13:19:52;15.77;;;10.45;;
31037;SDS011;17702;47.590;7.666;2024-01-30T13:22:19;15.45;;;10.07;;
31037;SDS011;17702;47.590;7.666;2024-01-30T13:24:48;11.98;;;8.90;;
31037;SDS011;17702;47.590;7.666;2024-01-30T13:27:13;11.00;;;8.95;;
31037;SDS011;17702;47.590;7.666;2024-01-30T13:29:39;14.35;;;8.65;;
31037;SDS011;17702;47.590;7.666;2024-01-30T13:32:05;15.15;;;10.15;;
31037;SDS011;17702;47.590;7.666;2024-01-30T13:34:30;24.38;;;14.27;;
31037;SDS011;17702;47.590;7.666;2024-01-30T13:36:56;24.13;;;13.35;;
31037;SDS011;17702;47.590;7.666;2024-01-30T13:39:22;13.35;;;8.82;;
31037;SDS011;17702;47.590;7.666;2024-01-30T13:41:48;10.57;;;6.68;;
31037;SDS011;17702;47.590;7.666;2024-01-30T13:44:14;8.48;;;6.38;;
31037;SDS011;17702;47.590;7.666;2024-01-30T13:46:41;7.50;;;6.75;;
31037;SDS011;17702;47.590;7.666;2024-01-30T13:49:07;8.00;;;7.18;;
31037;SDS011;17702;47.590;7.666;2024-01-30T13:51:32;8.57;;;6.72;;
31037;SDS011;17702;47.590;7.666;2024-01-30T13:53:58;8.50;;;6.68;;
31037;SDS011;17702;47.590;7.666;2024-01-30T13:56:24;9.93;;;6.10;;
31037;SDS011;17702;47.590;7.666;2024-01-30T13:58:51;10.77;;;8.00;;
31037;SDS011;17702;47.590;7.666;2024-01-30T14:01:17;6.82;;;6.18;;
31037;SDS011;17702;47.590;7.666;2024-01-30T14:03:43;7.00;;;5.43;;
31037;SDS011;17702;47.590;7.666;2024-01-30T14:06:09;10.10;;;5.80;;
31037;SDS011;17702;47.590;7.666;2024-01-30T14:08:35;12.32;;;5.55;;
31037;SDS011;17702;47.590;7.666;2024-01-30T14:11:01;10.32;;;5.55;;
31037;SDS011;17702;47.590;7.666;2024-01-30T14:13:26;6.40;;;5.18;;
31037;SDS011;17702;47.590;7.666;2024-01-30T14:15:52;9.85;;;6.43;;
31037;SDS011;17702;47.590;7.666;2024-01-30T14:18:18;6.75;;;6.03;;
31037;SDS011;17702;47.590;7.666;2024-01-30T14:20:43;6.90;;;6.18;;
31037;SDS011;17702;47.590;7.666;2024-01-30T14:23:09;8.73;;;6.88;;